Time;durP1;ratioP1;P1;durP2;ratioP2;P2;SDS_P1;SDS_P2;PMS_P1;PMS_P2;Temp;Humidity;BMP_temperature;BMP_pressure;BME280_temperature;BME280_humidity;BME280_pressure;Samples;Min_cycle;Max_cycle;Signal;HPM_P1;HPM_P2
2023/09/12 00:02:12;;;;;;;23.70;18.50;;;;;;;;;;4936777;29;20234;-75
2023/09/12 00:05:16;;;;;;;22.50;19.30;;;;;;;;;;4937158;29;20650;-75
2023/09/12 00:08:20;;;;;;;23.73;21.20;;;;;;;;;;4936091;29;20183;-75
2023/09/12 00:11:25;;;;;;;22.00;19.60;;;;;;;;;;4937029;29;20733;-75
2023/09/12 00:14:29;;;;;;;24.67;20.80;;;;;;;;;;4925375;29;20547;-75
2023/09/12 00:17:33;;;;;;;26.77;22.67;;;;;;;;;;4936613;29;20191;-75
2023/09/12 00:20:37;;;;;;;22.83;20.20;;;;;;;;;;4936620;29;20187;-75
2023/09/12 00:23:41;;;;;;;23.33;19.87;;;;;;;;;;4936627;29;20191;-75
2023/09/12 00:26:46;;;;;;;23.67;19.70;;;;;;;;;;4936547;29;20187;-75
2023/09/12 00:29:50;;;;;;;22.03;19.73;;;;;;;;;;4936547;29;20207;-75
2023/09/12 00:32:54;;;;;;;22.23;19.77;;;;;;;;;;4924693;29;20234;-74
2023/09/12 00:35:59;;;;;;;23.67;20.40;;;;;;;;;;4913891;29;20187;-75
2023/09/12 00:39:03;;;;;;;21.93;19.57;;;;;;;;;;4936285;29;20571;-75
2023/09/12 00:42:07;;;;;;;20.80;18.60;;;;;;;;;;4935520;29;20223;-74
2023/09/12 00:45:11;;;;;;;23.07;19.40;;;;;;;;;;4924649;29;20191;-75
2023/09/12 00:48:17;;;;;;;19.00;17.00;;;;;;;;;;4936503;29;20192;-75
2023/09/12 00:51:23;;;;;;;24.37;19.57;;;;;;;;;;4935584;29;20583;-75
2023/09/12 00:54:28;;;;;;;23.77;19.83;;;;;;;;;;4935586;29;20195;-75
2023/09/12 00:57:34;;;;;;;22.00;19.73;;;;;;;;;;4924647;29;20191;-75
2023/09/12 01:00:40;;;;;;;22.33;20.00;;;;;;;;;;4935239;29;20207;-75
2023/09/12 01:03:44;;;;;;;25.80;21.33;;;;;;;;;;4924317;29;20187;-75
2023/09/12 01:06:48;;;;;;;25.13;21.67;;;;;;;;;;4935185;29;20576;-75
2023/09/12 01:09:52;;;;;;;25.47;19.03;;;;;;;;;;4924233;29;20183;-75
2023/09/12 01:12:56;;;;;;;21.33;19.03;;;;;;;;;;4935027;29;20219;-75
2023/09/12 01:16:00;;;;;;;21.43;19.13;;;;;;;;;;4924160;29;20187;-75
2023/09/12 01:19:06;;;;;;;20.07;17.87;;;;;;;;;;4934946;29;20591;-75
2023/09/12 01:22:22;;;;;;;23.20;17.60;;;;;;;;;;4924257;29;20231;-75
2023/09/12 01:25:46;;;;;;;18.33;16.53;;;;;;;;;;4935258;29;20548;-75
2023/09/12 01:28:55;;;;;;;19.10;16.50;;;;;;;;;;4935070;29;20183;-74
2023/09/12 01:32:00;;;;;;;20.37;16.60;;;;;;;;;;4913199;29;20231;-75
2023/09/12 01:35:05;;;;;;;22.17;16.93;;;;;;;;;;4935161;29;20662;-75
2023/09/12 01:38:09;;;;;;;18.20;16.30;;;;;;;;;;4935616;29;20552;-75
2023/09/12 01:41:13;;;;;;;20.57;17.07;;;;;;;;;;4934769;29;20230;-75
2023/09/12 01:44:18;;;;;;;20.93;16.63;;;;;;;;;;4913017;29;20187;-75
2023/09/12 01:47:24;;;;;;;21.10;16.20;;;;;;;;;;4923983;29;20196;-75
2023/09/12 01:50:29;;;;;;;18.33;16.40;;;;;;;;;;4934811;29;20674;-75
2023/09/12 01:53:35;;;;;;;18.33;16.43;;;;;;;;;;4934986;29;20666;-75
2023/09/12 01:56:40;;;;;;;19.90;17.37;;;;;;;;;;4934708;29;20183;-74
2023/09/12 01:59:44;;;;;;;18.53;16.40;;;;;;;;;;4934902;29;20583;-75
2023/09/12 02:02:49;;;;;;;21.37;18.73;;;;;;;;;;4934491;29;20242;-75
2023/09/12 02:05:53;;;;;;;23.40;18.07;;;;;;;;;;4935683;29;20191;-75
2023/09/12 02:08:57;;;;;;;18.63;16.77;;;;;;;;;;4934614;29;20654;-75
2023/09/12 02:12:02;;;;;;;18.70;16.80;;;;;;;;;;4923885;29;20223;-75
2023/09/12 02:15:07;;;;;;;17.67;15.83;;;;;;;;;;4935438;29;20199;-75
2023/09/12 02:18:11;;;;;;;20.60;17.40;;;;;;;;;;4926892;29;20187;-75
2023/09/12 02:21:15;;;;;;;17.17;15.37;;;;;;;;;;4938540;29;20227;-75
2023/09/12 02:24:21;;;;;;;19.53;15.83;;;;;;;;;;4937952;29;20195;-75
2023/09/12 02:27:25;;;;;;;17.47;15.57;;;;;;;;;;4937945;29;20666;-75
2023/09/12 02:30:29;;;;;;;17.83;15.93;;;;;;;;;;4938369;29;20191;-76
2023/09/12 02:33:33;;;;;;;18.57;16.20;;;;;;;;;;4938617;29;20192;-75
2023/09/12 02:36:37;;;;;;;21.83;16.40;;;;;;;;;;4926810;29;20659;-75
2023/09/12 02:39:41;;;;;;;18.40;15.67;;;;;;;;;;4937592;29;20211;-75
2023/09/12 02:42:45;;;;;;;17.43;15.63;;;;;;;;;;4937593;29;20227;-74
2023/09/12 02:45:49;;;;;;;18.40;16.43;;;;;;;;;;4937850;29;20183;-75
2023/09/12 02:48:53;;;;;;;17.87;16.07;;;;;;;;;;4937547;29;20539;-75
2023/09/12 02:51:57;;;;;;;18.57;15.47;;;;;;;;;;4915643;29;20231;-75
2023/09/12 02:55:02;;;;;;;18.27;15.57;;;;;;;;;;4937423;29;20195;-75
2023/09/12 02:58:06;;;;;;;18.63;15.40;;;;;;;;;;4938138;29;20191;-75
2023/09/12 03:01:17;;;;;;;16.90;15.13;;;;;;;;;;4937875;29;20230;-75
2023/09/12 03:04:25;;;;;;;18.53;15.53;;;;;;;;;;4937259;29;20690;-75
2023/09/12 03:07:30;;;;;;;17.63;15.73;;;;;;;;;;4915651;29;20191;-75
2023/09/12 03:10:34;;;;;;;19.00;15.30;;;;;;;;;;4937279;29;20188;-75
2023/09/12 03:13:41;;;;;;;18.70;16.67;;;;;;;;;;4937143;29;20183;-75
2023/09/12 03:16:45;;;;;;;21.00;16.10;;;;;;;;;;4926436;29;20215;-75
2023/09/12 03:19:48;;;;;;;19.43;16.77;;;;;;;;;;4937127;29;20223;-75
2023/09/12 03:22:53;;;;;;;19.53;17.23;;;;;;;;;;4937949;29;20218;-75
2023/09/12 03:26:04;;;;;;;22.70;17.90;;;;;;;;;;4936899;29;20233;-75
2023/09/12 03:29:09;;;;;;;19.63;17.63;;;;;;;;;;4925755;29;20544;-75
2023/09/12 03:32:13;;;;;;;20.83;18.63;;;;;;;;;;4936683;29;20227;-75
2023/09/12 03:35:17;;;;;;;20.60;18.40;;;;;;;;;;4937475;29;20654;-74
2023/09/12 03:38:21;;;;;;;17.50;15.30;;;;;;;;;;4936900;29;20191;-74
2023/09/12 03:41:26;;;;;;;18.17;16.27;;;;;;;;;;4936483;29;20226;-75
2023/09/12 03:44:31;;;;;;;17.93;15.70;;;;;;;;;;4936697;29;20191;-75
2023/09/12 03:47:35;;;;;;;18.80;16.90;;;;;;;;;;4937275;29;20551;-75
2023/09/12 03:50:39;;;;;;;21.53;17.17;;;;;;;;;;4936603;29;20214;-75
2023/09/12 03:53:43;;;;;;;19.90;16.33;;;;;;;;;;4936661;29;20554;-75
2023/09/12 03:56:47;;;;;;;18.90;16.37;;;;;;;;;;4936547;29;20191;-75
2023/09/12 03:59:52;;;;;;;21.80;17.23;;;;;;;;;;4925556;29;20211;-75
2023/09/12 04:02:57;;;;;;;18.33;16.43;;;;;;;;;;4931261;23;20239;-76
2023/09/12 04:06:01;;;;;;;18.23;16.33;;;;;;;;;;4917314;29;20180;-76
2023/09/12 04:09:05;;;;;;;22.33;17.03;;;;;;;;;;4917313;29;20270;-76
2023/09/12 04:12:09;;;;;;;23.47;18.23;;;;;;;;;;4917293;29;20595;-76
2023/09/12 04:15:13;;;;;;;38.60;17.90;;;;;;;;;;4917635;29;20192;-76
2023/09/12 04:18:17;;;;;;;40.60;18.57;;;;;;;;;;4918367;29;20663;-77
2023/09/12 04:21:21;;;;;;;34.23;18.20;;;;;;;;;;4906179;29;20722;-76
2023/09/12 04:24:25;;;;;;;22.73;17.77;;;;;;;;;;4906503;29;20267;-76
2023/09/12 04:27:29;;;;;;;23.63;19.20;;;;;;;;;;4916959;29;20192;-76
2023/09/12 04:30:35;;;;;;;42.10;20.23;;;;;;;;;;4916748;29;20188;-76
2023/09/12 04:33:39;;;;;;;22.97;20.47;;;;;;;;;;4916924;29;20188;-77
2023/09/12 04:36:43;;;;;;;25.90;19.47;;;;;;;;;;4906739;29;20192;-77
2023/09/12 04:39:48;;;;;;;19.40;17.17;;;;;;;;;;4916836;29;20224;-77
2023/09/12 04:42:53;;;;;;;25.33;17.10;;;;;;;;;;4917287;29;20235;-76
2023/09/12 04:45:57;;;;;;;27.67;17.90;;;;;;;;;;4895527;29;20196;-77
2023/09/12 04:49:02;;;;;;;21.70;19.03;;;;;;;;;;4917244;29;20191;-76
2023/09/12 04:52:06;;;;;;;22.60;17.87;;;;;;;;;;4906220;29;20227;-76
2023/09/12 04:55:11;;;;;;;30.13;19.17;;;;;;;;;;4918239;29;20192;-76
2023/09/12 04:58:15;;;;;;;36.00;17.93;;;;;;;;;;4906731;29;20218;-76
2023/09/12 05:01:19;;;;;;;29.93;20.10;;;;;;;;;;4909251;29;20231;-76
2023/09/12 05:04:24;;;;;;;24.00;19.27;;;;;;;;;;4920782;29;20189;-76
2023/09/12 05:07:28;;;;;;;24.20;19.20;;;;;;;;;;4931603;29;20195;-76
2023/09/12 05:10:33;;;;;;;24.63;17.73;;;;;;;;;;4899011;29;20192;-76
2023/09/12 05:13:37;;;;;;;19.83;17.73;;;;;;;;;;4920349;29;20196;-76
2023/09/12 05:16:41;;;;;;;28.80;17.47;;;;;;;;;;4910122;29;20548;-76
2023/09/12 05:19:46;;;;;;;23.73;17.00;;;;;;;;;;4909326;29;20212;-76
2023/09/12 05:22:50;;;;;;;24.83;15.80;;;;;;;;;;4920172;29;20232;-76
2023/09/12 05:25:54;;;;;;;27.97;17.43;;;;;;;;;;4921073;29;20537;-76
2023/09/12 05:28:58;;;;;;;23.03;17.27;;;;;;;;;;4921664;29;20188;-76
2023/09/12 05:32:04;;;;;;;24.47;17.60;;;;;;;;;;4909544;29;20584;-76
2023/09/12 05:35:08;;;;;;;20.47;17.57;;;;;;;;;;4920773;29;20187;-76
2023/09/12 05:38:13;;;;;;;22.30;17.60;;;;;;;;;;4920831;29;20541;-76
2023/09/12 05:41:18;;;;;;;20.13;16.43;;;;;;;;;;4909607;29;20252;-76
2023/09/12 05:44:22;;;;;;;18.00;16.10;;;;;;;;;;4909830;29;20681;-76
2023/09/12 05:47:26;;;;;;;17.97;15.40;;;;;;;;;;4921019;29;20192;-76
2023/09/12 05:50:30;;;;;;;19.47;16.10;;;;;;;;;;4921273;29;20192;-77
2023/09/12 05:53:35;;;;;;;18.73;16.83;;;;;;;;;;4913534;29;20204;-76
2023/09/12 05:56:39;;;;;;;18.93;16.93;;;;;;;;;;4913344;29;20200;-77
2023/09/12 05:59:44;;;;;;;21.90;18.30;;;;;;;;;;4913605;29;20220;-77
2023/09/12 06:02:48;;;;;;;22.20;18.67;;;;;;;;;;4913634;29;20239;-77
2023/09/12 06:05:52;;;;;;;22.30;17.70;;;;;;;;;;4913670;29;20192;-77
2023/09/12 06:08:58;;;;;;;20.70;16.67;;;;;;;;;;4925363;29;20196;-77
2023/09/12 06:12:02;;;;;;;18.50;16.60;;;;;;;;;;4935702;29;20219;-77
2023/09/12 06:15:07;;;;;;;20.83;17.73;;;;;;;;;;4924063;29;20192;-76
2023/09/12 06:18:11;;;;;;;23.30;16.93;;;;;;;;;;4902241;29;20191;-76
2023/09/12 06:21:15;;;;;;;20.87;18.73;;;;;;;;;;4923471;29;20239;-77
2023/09/12 06:24:23;;;;;;;21.80;17.50;;;;;;;;;;4913193;29;20196;-76
2023/09/12 06:27:28;;;;;;;34.90;18.23;;;;;;;;;;4912960;29;20196;-76
2023/09/12 06:30:32;;;;;;;34.97;17.50;;;;;;;;;;4923556;29;20196;-77
2023/09/12 06:33:35;;;;;;;33.67;18.10;;;;;;;;;;4923254;29;20663;-77
2023/09/12 06:36:44;;;;;;;30.10;17.27;;;;;;;;;;4922299;29;20184;-77
2023/09/12 06:39:50;;;;;;;29.60;17.43;;;;;;;;;;4922402;29;20220;-77
2023/09/12 06:42:54;;;;;;;28.60;18.43;;;;;;;;;;4921148;29;20227;-77
2023/09/12 06:45:58;;;;;;;26.07;17.53;;;;;;;;;;4921687;29;20191;-77
2023/09/12 06:49:03;;;;;;;23.03;18.23;;;;;;;;;;4920570;29;20191;-76
2023/09/12 06:52:09;;;;;;;29.10;20.20;;;;;;;;;;4909912;29;20501;-77
2023/09/12 06:55:13;;;;;;;25.83;17.17;;;;;;;;;;4920980;29;20197;-77
2023/09/12 06:58:17;;;;;;;21.67;17.10;;;;;;;;;;4920137;29;20196;-77
2023/09/12 07:01:21;;;;;;;20.13;15.73;;;;;;;;;;4920927;29;20239;-77
2023/09/12 07:04:26;;;;;;;24.77;17.00;;;;;;;;;;4921218;29;20545;-77
2023/09/12 07:07:31;;;;;;;19.87;15.27;;;;;;;;;;4920717;29;20188;-77
2023/09/12 07:10:35;;;;;;;16.83;13.90;;;;;;;;;;4920254;29;20184;-78
2023/09/12 07:13:39;;;;;;;34.83;15.40;;;;;;;;;;4920210;29;20180;-77
2023/09/12 07:16:43;;;;;;;22.27;14.80;;;;;;;;;;4919852;29;20184;-77
2023/09/12 07:19:47;;;;;;;15.13;12.97;;;;;;;;;;4920530;29;20654;-78
2023/09/12 07:22:52;;;;;;;14.33;12.37;;;;;;;;;;4908109;29;20227;-77
2023/09/12 07:25:59;;;;;;;15.50;12.30;;;;;;;;;;4919823;29;20192;-77
2023/09/12 07:29:05;;;;;;;14.77;13.23;;;;;;;;;;4919914;29;20198;-76
2023/09/12 07:32:09;;;;;;;17.73;13.40;;;;;;;;;;4908055;29;20220;-76
2023/09/12 07:35:14;;;;;;;20.13;15.10;;;;;;;;;;4919694;29;20206;-77
2023/09/12 07:38:20;;;;;;;23.17;14.17;;;;;;;;;;4908046;29;20214;-77
2023/09/12 07:41:24;;;;;;;15.33;13.70;;;;;;;;;;4919397;29;20242;-77
2023/09/12 07:44:29;;;;;;;14.37;12.33;;;;;;;;;;4919359;29;20194;-76
2023/09/12 07:47:33;;;;;;;15.53;12.77;;;;;;;;;;4918445;29;20196;-76
2023/09/12 07:50:38;;;;;;;13.90;11.57;;;;;;;;;;4918246;29;20659;-76
2023/09/12 07:53:43;;;;;;;12.73;11.37;;;;;;;;;;4929215;29;20203;-76
2023/09/12 07:56:47;;;;;;;18.50;11.10;;;;;;;;;;4896851;29;20581;-76
2023/09/12 07:59:51;;;;;;;23.33;10.77;;;;;;;;;;4919022;29;20190;-76
2023/09/12 08:02:55;;;;;;;11.80;9.32;;;;;;;;;;4918435;29;20227;-77
2023/09/12 08:06:00;;;;;;;30.27;10.90;;;;;;;;;;4918047;29;20194;-76
2023/09/12 08:09:04;;;;;;;15.95;10.30;;;;;;;;;;4918804;29;20552;-77
2023/09/12 08:12:08;;;;;;;13.00;9.85;;;;;;;;;;4917861;29;20219;-76
2023/09/12 08:15:13;;;;;;;15.40;10.95;;;;;;;;;;4917614;29;20180;-77
2023/09/12 08:18:17;;;;;;;18.05;10.90;;;;;;;;;;4918428;29;20559;-77
2023/09/12 08:21:21;;;;;;;17.77;12.55;;;;;;;;;;4918465;29;20724;-77
2023/09/12 08:24:25;;;;;;;20.38;11.85;;;;;;;;;;4928926;29;20195;-77
2023/09/12 08:27:30;;;;;;;16.23;11.38;;;;;;;;;;4929019;29;20197;-76
2023/09/12 08:30:34;;;;;;;10.63;9.57;;;;;;;;;;4918000;29;20196;-77
2023/09/12 08:33:38;;;;;;;15.75;9.20;;;;;;;;;;4918897;29;20197;-77
2023/09/12 08:36:41;;;;;;;10.95;8.88;;;;;;;;;;4918585;29;20199;-76
2023/09/12 08:39:46;;;;;;;12.55;8.45;;;;;;;;;;4917654;29;20192;-77
2023/09/12 08:42:52;;;;;;;13.65;8.98;;;;;;;;;;4917294;29;20215;-77
2023/09/12 08:45:56;;;;;;;11.88;9.68;;;;;;;;;;4918324;29;20258;-76
2023/09/12 08:49:00;;;;;;;10.68;9.07;;;;;;;;;;4918249;29;20195;-77
2023/09/12 08:52:05;;;;;;;13.25;8.70;;;;;;;;;;4917191;29;20229;-76
2023/09/12 08:55:10;;;;;;;11.43;7.45;;;;;;;;;;4918389;29;20185;-76
2023/09/12 08:58:15;;;;;;;9.25;7.53;;;;;;;;;;4917468;29;20199;-77
2023/09/12 09:01:19;;;;;;;21.92;8.45;;;;;;;;;;4918035;29;20236;-76
2023/09/12 09:04:26;;;;;;;12.10;8.43;;;;;;;;;;4918087;29;20192;-76
2023/09/12 09:07:33;;;;;;;8.27;7.22;;;;;;;;;;4917799;29;20202;-76
2023/09/12 09:10:38;;;;;;;8.00;7.20;;;;;;;;;;4917727;29;20173;-76
2023/09/12 09:13:42;;;;;;;9.70;7.30;;;;;;;;;;4917050;29;20185;-76
2023/09/12 09:16:46;;;;;;;7.68;6.93;;;;;;;;;;4917221;29;20185;-77
2023/09/12 09:19:51;;;;;;;13.73;7.10;;;;;;;;;;4917508;29;20185;-77
2023/09/12 09:23:06;;;;;;;8.55;6.78;;;;;;;;;;4917448;29;20236;-76
2023/09/12 09:26:10;;;;;;;9.23;6.82;;;;;;;;;;4920751;29;20185;-76
2023/09/12 09:29:16;;;;;;;7.32;6.63;;;;;;;;;;4923717;29;20181;-77
2023/09/12 09:32:21;;;;;;;8.02;6.53;;;;;;;;;;4923187;29;20221;-76
2023/09/12 09:35:26;;;;;;;7.22;6.53;;;;;;;;;;4923199;29;20184;-76
2023/09/12 09:38:30;;;;;;;8.50;5.97;;;;;;;;;;4923948;29;20197;-76
2023/09/12 09:41:34;;;;;;;7.18;6.47;;;;;;;;;;4922846;29;20580;-76
2023/09/12 09:44:39;;;;;;;9.02;6.07;;;;;;;;;;4924293;29;20181;-76
2023/09/12 09:47:43;;;;;;;7.20;6.50;;;;;;;;;;4923695;29;20181;-77
2023/09/12 09:50:48;;;;;;;9.32;6.45;;;;;;;;;;4923533;29;20180;-76
2023/09/12 09:53:53;;;;;;;11.77;6.57;;;;;;;;;;4912311;29;20232;-77
2023/09/12 09:56:57;;;;;;;21.13;7.70;;;;;;;;;;4922889;29;20192;-76
2023/09/12 10:00:08;;;;;;;10.23;6.57;;;;;;;;;;4924342;29;20198;-76
2023/09/12 10:03:13;;;;;;;9.82;6.60;;;;;;;;;;4922725;29;20214;-74
2023/09/12 10:06:19;;;;;;;7.38;6.68;;;;;;;;;;4923730;29;20185;-74
2023/09/12 10:09:26;;;;;;;8.68;6.50;;;;;;;;;;4924087;29;20617;-75
2023/09/12 10:12:31;;;;;;;12.48;7.60;;;;;;;;;;4923603;29;20221;-75
2023/09/12 10:15:37;;;;;;;10.93;6.43;;;;;;;;;;4922847;29;20188;-76
2023/09/12 10:18:49;;;;;;;8.25;5.75;;;;;;;;;;4912389;29;20181;-76
2023/09/12 10:22:00;;;;;;;10.00;6.00;;;;;;;;;;4911784;29;20228;-77
2023/09/12 10:25:04;;;;;;;6.75;5.78;;;;;;;;;;4924037;29;20181;-74
2023/09/12 10:28:09;;;;;;;7.28;6.07;;;;;;;;;;4923720;29;20181;-74
2023/09/12 10:31:14;;;;;;;6.78;6.18;;;;;;;;;;4922413;29;20221;-74
2023/09/12 10:34:20;;;;;;;10.70;5.70;;;;;;;;;;4923816;29;20189;-74
2023/09/12 10:37:26;;;;;;;7.18;5.95;;;;;;;;;;4921247;29;20196;-74
2023/09/12 10:40:32;;;;;;;7.45;5.88;;;;;;;;;;4919624;29;20189;-74
2023/09/12 10:43:38;;;;;;;7.53;6.13;;;;;;;;;;4920908;29;20186;-75
2023/09/12 10:46:44;;;;;;;8.95;6.60;;;;;;;;;;4919835;29;20189;-75
2023/09/12 10:49:48;;;;;;;6.18;5.68;;;;;;;;;;4919547;29;20636;-74
2023/09/12 10:52:53;;;;;;;7.28;5.97;;;;;;;;;;4919926;29;20688;-74
2023/09/12 10:56:15;;;;;;;9.80;5.85;;;;;;;;;;4918995;29;20189;-74
2023/09/12 10:59:23;;;;;;;5.63;5.15;;;;;;;;;;4919319;29;20186;-74
2023/09/12 11:02:35;;;;;;;6.05;5.30;;;;;;;;;;4919621;29;20232;-75
2023/09/12 11:05:52;;;;;;;8.00;5.55;;;;;;;;;;4920142;29;20185;-75
2023/09/12 11:09:32;;;;;;;10.70;5.68;;;;;;;;;;4920059;29;20189;-76
2023/09/12 11:12:36;;;;;;;6.90;4.90;;;;;;;;;;4881997;29;20284;-76
2023/09/12 11:16:10;;;;;;;7.32;5.50;;;;;;;;;;4920352;29;20181;-75
2023/09/12 11:19:19;;;;;;;6.78;5.50;;;;;;;;;;4919960;29;20186;-75
2023/09/12 11:22:31;;;;;;;12.68;6.28;;;;;;;;;;4919159;29;20217;-75
2023/09/12 11:25:36;;;;;;;9.52;5.80;;;;;;;;;;4918565;29;20192;-75
2023/09/12 11:28:42;;;;;;;6.00;5.32;;;;;;;;;;4919547;29;20515;-75
2023/09/12 11:31:57;;;;;;;8.85;5.40;;;;;;;;;;4919482;29;20217;-76
2023/09/12 11:35:08;;;;;;;6.10;5.50;;;;;;;;;;4918456;29;20185;-76
2023/09/12 11:38:26;;;;;;;6.90;5.38;;;;;;;;;;4919183;29;20186;-76
2023/09/12 11:41:39;;;;;;;7.53;5.22;;;;;;;;;;4918463;29;20233;-76
2023/09/12 11:44:46;;;;;;;7.93;5.03;;;;;;;;;;4919013;29;20181;-76
2023/09/12 11:47:50;;;;;;;10.07;5.30;;;;;;;;;;4918964;29;20181;-76
2023/09/12 11:50:56;;;;;;;19.48;6.00;;;;;;;;;;4917955;29;20722;-75
2023/09/12 11:54:01;;;;;;;7.60;4.57;;;;;;;;;;4919503;29;20570;-75
2023/09/12 11:57:07;;;;;;;8.45;4.75;;;;;;;;;;4918452;29;20633;-76
2023/09/12 12:00:13;;;;;;;5.63;4.80;;;;;;;;;;4919415;29;20181;-76
2023/09/12 12:03:24;;;;;;;7.18;5.22;;;;;;;;;;4917750;29;20695;-75
2023/09/12 12:06:30;;;;;;;6.13;5.45;;;;;;;;;;4918383;29;20185;-75
2023/09/12 12:09:34;;;;;;;5.60;5.10;;;;;;;;;;4917982;29;20522;-75
2023/09/12 12:12:39;;;;;;;7.70;5.22;;;;;;;;;;4919076;29;20692;-75
2023/09/12 12:15:42;;;;;;;10.75;5.18;;;;;;;;;;4917950;29;20625;-75
2023/09/12 12:18:47;;;;;;;15.50;6.93;;;;;;;;;;4917969;29;20185;-75
2023/09/12 12:21:51;;;;;;;68.68;8.07;;;;;;;;;;4918500;29;20231;-75
2023/09/12 12:24:55;;;;;;;19.40;5.82;;;;;;;;;;4919131;29;20279;-75
2023/09/12 12:28:01;;;;;;;8.77;5.13;;;;;;;;;;4917804;29;20194;-74
2023/09/12 12:31:05;;;;;;;7.20;5.15;;;;;;;;;;4917815;29;20225;-75
2023/09/12 12:34:09;;;;;;;5.85;5.25;;;;;;;;;;4906654;29;20181;-75
2023/09/12 12:37:13;;;;;;;8.73;5.13;;;;;;;;;;4917710;29;20189;-75
2023/09/12 12:40:17;;;;;;;7.97;4.97;;;;;;;;;;4917456;29;20189;-75
2023/09/12 12:43:22;;;;;;;6.25;4.72;;;;;;;;;;4918725;29;20213;-75
2023/09/12 12:46:28;;;;;;;11.00;5.15;;;;;;;;;;4918812;29;20193;-75
2023/09/12 12:49:38;;;;;;;19.35;5.65;;;;;;;;;;4917794;29;20558;-75
2023/09/12 12:52:42;;;;;;;22.27;5.05;;;;;;;;;;4918416;29;20217;-75
2023/09/12 12:55:46;;;;;;;6.85;4.70;;;;;;;;;;4918778;29;20193;-75
2023/09/12 12:58:55;;;;;;;39.88;8.13;;;;;;;;;;4917728;29;20189;-75
2023/09/12 13:01:59;;;;;;;8.20;4.20;;;;;;;;;;4917688;29;20241;-74
2023/09/12 13:05:07;;;;;;;6.05;4.72;;;;;;;;;;4918421;29;20177;-75
2023/09/12 13:08:11;;;;;;;8.93;5.00;;;;;;;;;;4918624;29;20181;-75
2023/09/12 13:11:16;;;;;;;7.47;4.45;;;;;;;;;;4917322;29;20220;-75
2023/09/12 13:14:20;;;;;;;5.90;4.82;;;;;;;;;;4917444;29;20529;-75
2023/09/12 13:17:24;;;;;;;8.38;4.78;;;;;;;;;;4918389;29;20193;-75
2023/09/12 13:20:28;;;;;;;7.80;4.57;;;;;;;;;;4918066;29;20181;-74
2023/09/12 13:23:37;;;;;;;6.85;4.90;;;;;;;;;;4918144;29;20209;-77
2023/09/12 13:26:41;;;;;;;5.63;4.40;;;;;;;;;;4917178;29;20185;-76
2023/09/12 13:29:47;;;;;;;7.70;5.07;;;;;;;;;;4906296;29;20193;-75
2023/09/12 13:32:51;;;;;;;5.90;5.25;;;;;;;;;;4917516;29;20221;-75
2023/09/12 13:35:55;;;;;;;6.53;4.60;;;;;;;;;;4917884;29;20177;-75
2023/09/12 13:38:59;;;;;;;5.88;4.78;;;;;;;;;;4918265;29;20181;-76
2023/09/12 13:42:09;;;;;;;10.45;5.18;;;;;;;;;;4917033;29;20224;-77
2023/09/12 13:45:13;;;;;;;8.07;5.60;;;;;;;;;;4906678;29;20185;-76
2023/09/12 13:48:18;;;;;;;7.57;5.38;;;;;;;;;;4917679;29;20189;-76
2023/09/12 13:51:22;;;;;;;11.30;5.78;;;;;;;;;;4916621;29;20700;-76
2023/09/12 13:54:26;;;;;;;6.20;4.75;;;;;;;;;;4917079;29;20194;-76
2023/09/12 13:57:31;;;;;;;252.05;18.67;;;;;;;;;;4918861;29;20189;-74
2023/09/12 14:00:36;;;;;;;16.10;5.60;;;;;;;;;;4918241;29;20185;-75
2023/09/12 14:03:40;;;;;;;12.05;5.53;;;;;;;;;;4917584;29;20723;-75
2023/09/12 14:06:44;;;;;;;8.38;4.95;;;;;;;;;;4906402;29;20196;-75
2023/09/12 14:09:49;;;;;;;8.55;4.72;;;;;;;;;;4917075;29;20189;-75
2023/09/12 14:12:53;;;;;;;10.20;5.03;;;;;;;;;;4918629;29;20221;-75
2023/09/12 14:15:57;;;;;;;10.27;5.07;;;;;;;;;;4921125;29;20189;-75
2023/09/12 14:19:01;;;;;;;7.68;5.28;;;;;;;;;;4921553;29;20196;-74
2023/09/12 14:22:06;;;;;;;6.72;4.82;;;;;;;;;;4920856;29;20220;-74
2023/09/12 14:25:14;;;;;;;8.30;4.80;;;;;;;;;;4920715;29;20185;-74
2023/09/12 14:28:18;;;;;;;6.32;5.10;;;;;;;;;;4920995;29;20185;-75
2023/09/12 14:31:23;;;;;;;10.90;4.93;;;;;;;;;;4919518;29;20225;-75
2023/09/12 14:34:27;;;;;;;6.40;4.80;;;;;;;;;;4920846;29;20192;-75
2023/09/12 14:37:31;;;;;;;8.63;5.85;;;;;;;;;;4919821;29;20204;-75
2023/09/12 14:40:36;;;;;;;10.27;5.88;;;;;;;;;;4920668;29;20181;-75
2023/09/12 14:43:40;;;;;;;7.25;5.80;;;;;;;;;;4930480;29;20222;-74
2023/09/12 14:46:44;;;;;;;8.68;5.53;;;;;;;;;;4919482;29;20641;-74
2023/09/12 14:49:48;;;;;;;10.00;5.90;;;;;;;;;;4920373;29;20189;-75
2023/09/12 14:52:52;;;;;;;9.30;5.75;;;;;;;;;;4919267;29;20216;-75
2023/09/12 14:55:56;;;;;;;8.38;5.80;;;;;;;;;;4920690;29;20181;-74
2023/09/12 14:59:02;;;;;;;7.13;5.55;;;;;;;;;;4919885;29;20181;-75
2023/09/12 15:02:06;;;;;;;8.80;5.28;;;;;;;;;;4919218;29;20233;-75
2023/09/12 15:05:11;;;;;;;5.72;5.18;;;;;;;;;;4920502;29;20189;-75
2023/09/12 15:08:15;;;;;;;10.80;5.38;;;;;;;;;;4920807;29;20177;-75
2023/09/12 15:11:19;;;;;;;7.28;5.38;;;;;;;;;;4919533;29;20227;-75
2023/09/12 15:14:23;;;;;;;6.28;5.47;;;;;;;;;;4919970;29;20185;-75
2023/09/12 15:17:28;;;;;;;11.00;5.70;;;;;;;;;;4920010;29;20300;-75
2023/09/12 15:20:33;;;;;;;7.40;5.55;;;;;;;;;;4919720;29;20548;-75
2023/09/12 15:23:37;;;;;;;27.63;6.50;;;;;;;;;;4919039;29;20673;-75
2023/09/12 15:26:41;;;;;;;52.53;8.63;;;;;;;;;;4919607;29;20192;-76
2023/09/12 15:29:45;;;;;;;17.33;6.55;;;;;;;;;;4918863;29;20210;-75
2023/09/12 15:32:49;;;;;;;12.57;6.03;;;;;;;;;;4919354;29;20231;-75
2023/09/12 15:35:54;;;;;;;16.73;6.20;;;;;;;;;;4919709;29;20181;-75
2023/09/12 15:38:59;;;;;;;11.52;6.57;;;;;;;;;;4918876;29;20209;-75
2023/09/12 15:42:03;;;;;;;9.77;6.45;;;;;;;;;;4908328;29;20228;-75
2023/09/12 15:45:09;;;;;;;9.00;6.55;;;;;;;;;;4920032;29;20502;-75
2023/09/12 15:48:14;;;;;;;9.50;6.38;;;;;;;;;;4918818;29;20531;-75
2023/09/12 15:51:18;;;;;;;6.25;5.30;;;;;;;;;;4919467;29;20225;-75
2023/09/12 15:54:24;;;;;;;10.43;6.35;;;;;;;;;;4918691;29;20181;-74
2023/09/12 15:57:28;;;;;;;21.77;6.75;;;;;;;;;;4919409;29;20541;-75
2023/09/12 16:00:32;;;;;;;82.45;10.35;;;;;;;;;;4919030;29;20200;-75
2023/09/12 16:03:36;;;;;;;18.25;6.95;;;;;;;;;;4930115;29;20247;-75
2023/09/12 16:06:40;;;;;;;8.95;6.90;;;;;;;;;;4918763;29;20660;-75
2023/09/12 16:09:44;;;;;;;8.85;6.60;;;;;;;;;;4919254;29;20186;-75
2023/09/12 16:12:48;;;;;;;9.43;6.82;;;;;;;;;;4917942;29;20228;-76
2023/09/12 16:15:52;;;;;;;9.07;6.72;;;;;;;;;;4918982;29;20184;-75
2023/09/12 16:18:56;;;;;;;10.40;6.22;;;;;;;;;;4918323;29;20187;-75
2023/09/12 16:22:00;;;;;;;35.78;8.63;;;;;;;;;;4918090;29;20216;-75
2023/09/12 16:25:05;;;;;;;114.60;12.57;;;;;;;;;;4919236;29;20188;-75
2023/09/12 16:28:09;;;;;;;45.67;8.93;;;;;;;;;;4918794;29;20200;-76
2023/09/12 16:31:13;;;;;;;20.48;7.80;;;;;;;;;;4917875;29;20236;-76
2023/09/12 16:34:17;;;;;;;13.90;7.03;;;;;;;;;;4918143;29;20193;-75
2023/09/12 16:37:21;;;;;;;11.23;7.57;;;;;;;;;;4917968;29;20654;-75
2023/09/12 16:40:25;;;;;;;9.30;7.20;;;;;;;;;;4917841;29;20191;-76
2023/09/12 16:43:29;;;;;;;11.05;7.20;;;;;;;;;;4917740;29;20262;-75
2023/09/12 16:46:33;;;;;;;8.80;6.95;;;;;;;;;;4918125;29;20198;-76
2023/09/12 16:49:39;;;;;;;8.10;7.05;;;;;;;;;;4919347;29;20187;-78
2023/09/12 16:52:43;;;;;;;10.90;7.07;;;;;;;;;;4917903;29;20224;-76
2023/09/12 16:55:47;;;;;;;10.27;6.60;;;;;;;;;;4896883;29;20202;-76
2023/09/12 16:58:51;;;;;;;9.07;7.90;;;;;;;;;;4906610;29;20219;-75
2023/09/12 17:01:55;;;;;;;10.85;8.70;;;;;;;;;;4918260;29;20227;-75
2023/09/12 17:04:59;;;;;;;10.68;7.35;;;;;;;;;;4918075;29;20712;-75
2023/09/12 17:08:04;;;;;;;9.40;7.10;;;;;;;;;;4928331;29;20203;-75
2023/09/12 17:11:08;;;;;;;8.18;7.28;;;;;;;;;;4918135;29;20213;-76
2023/09/12 17:14:13;;;;;;;15.50;6.72;;;;;;;;;;4917396;29;20184;-75
2023/09/12 17:17:17;;;;;;;16.20;6.90;;;;;;;;;;4918020;29;20199;-75
2023/09/12 17:20:21;;;;;;;12.10;6.28;;;;;;;;;;4918702;29;20543;-76
2023/09/12 17:23:25;;;;;;;10.82;6.80;;;;;;;;;;4917690;29;20211;-76
2023/09/12 17:26:29;;;;;;;8.33;7.20;;;;;;;;;;4917030;29;20572;-75
2023/09/12 17:29:33;;;;;;;9.90;7.47;;;;;;;;;;4918379;29;20184;-76
2023/09/12 17:32:38;;;;;;;12.23;8.33;;;;;;;;;;4917805;29;20227;-76
2023/09/12 17:35:42;;;;;;;14.80;8.30;;;;;;;;;;4917695;29;20193;-76
2023/09/12 17:38:47;;;;;;;11.83;7.90;;;;;;;;;;4917662;29;20199;-74
2023/09/12 17:41:51;;;;;;;10.47;7.87;;;;;;;;;;4917454;29;20232;-76
2023/09/12 17:44:55;;;;;;;10.30;8.47;;;;;;;;;;4906884;29;20224;-76
2023/09/12 17:47:59;;;;;;;10.53;8.00;;;;;;;;;;4920263;29;20199;-75
2023/09/12 17:51:03;;;;;;;9.33;7.57;;;;;;;;;;4921419;29;20727;-75
2023/09/12 17:54:08;;;;;;;12.20;8.70;;;;;;;;;;4921692;29;20526;-75
2023/09/12 17:57:12;;;;;;;12.80;7.63;;;;;;;;;;4921171;29;20201;-76
2023/09/12 18:00:16;;;;;;;11.53;7.80;;;;;;;;;;4920760;29;20197;-75
2023/09/12 18:03:20;;;;;;;10.73;7.87;;;;;;;;;;4920636;29;20240;-75
2023/09/12 18:06:26;;;;;;;10.73;7.73;;;;;;;;;;4899399;29;20187;-75
2023/09/12 18:09:31;;;;;;;11.43;7.70;;;;;;;;;;4921240;29;20543;-75
2023/09/12 18:12:35;;;;;;;8.93;7.30;;;;;;;;;;4909905;29;20226;-75